sensor_id;sensor_type;location;lat;lon;timestamp;pressure;altitude;pressure_sealevel;temperature;humidity
66560;BME280;53413;49.878;8.142;2023-01-28T00:01:21;100813.91;;;3.01;100.00
66560;BME280;53413;49.878;8.142;2023-01-28T00:03:50;100814.78;;;3.03;100.00
66560;BME280;53413;49.878;8.142;2023-01-28T00:06:18;100809.59;;;3.03;100.00
66560;BME280;53413;49.878;8.142;2023-01-28T00:08:44;100809.59;;;3.03;100.00
66560;BME280;53413;49.878;8.142;2023-01-28T00:11:11;100809.56;;;3.00;100.00
66560;BME280;53413;49.878;8.142;2023-01-28T00:13:37;100811.28;;;2.98;100.00
66560;BME280;53413;49.878;8.142;2023-01-28T00:16:04;100813.00;;;2.96;100.00
66560;BME280;53413;49.878;8.142;2023-01-28T00:18:31;100800.03;;;2.96;100.00
66560;BME280;53413;49.878;8.142;2023-01-28T00:21:04;100810.41;;;2.96;100.00
66560;BME280;53413;49.878;8.142;2023-01-28T00:23:32;100808.66;;;2.95;100.00
66560;BME280;53413;49.878;8.142;2023-01-28T00:25:59;100813.88;;;2.97;100.00
66560;BME280;53413;49.878;8.142;2023-01-28T00:28:25;100817.34;;;2.99;100.00
66560;BME280;53413;49.878;8.142;2023-01-28T00:30:50;100805.25;;;2.99;100.00
66560;BME280;53413;49.878;8.142;2023-01-28T00:33:16;100806.97;;;3.00;100.00
66560;BME280;53413;49.878;8.142;2023-01-28T00:35:41;100811.31;;;3.01;100.00
66560;BME280;53413;49.878;8.142;2023-01-28T00:38:07;100807.84;;;2.99;100.00
66560;BME280;53413;49.878;8.142;2023-01-28T00:40:33;100801.78;;;2.97;100.00
66560;BME280;53413;49.878;8.142;2023-01-28T00:42:58;100805.22;;;2.96;100.00
66560;BME280;53413;49.878;8.142;2023-01-28T00:45:24;100806.94;;;2.97;100.00
66560;BME280;53413;49.878;8.142;2023-01-28T00:47:49;100804.38;;;2.97;100.00
66560;BME280;53413;49.878;8.142;2023-01-28T00:50:15;100807.81;;;2.95;100.00
66560;BME280;53413;49.878;8.142;2023-01-28T00:52:40;100810.41;;;2.95;100.00
66560;BME280;53413;49.878;8.142;2023-01-28T00:55:06;100809.53;;;2.96;100.00
66560;BME280;53413;49.878;8.142;2023-01-28T00:57:31;100811.28;;;2.97;100.00
66560;BME280;53413;49.878;8.142;2023-01-28T00:59:58;100813.00;;;2.96;100.00
66560;BME280;53413;49.878;8.142;2023-01-28T01:02:24;100805.22;;;2.95;100.00
66560;BME280;53413;49.878;8.142;2023-01-28T01:04:49;100814.72;;;2.94;100.00
66560;BME280;53413;49.878;8.142;2023-01-28T01:07:26;100813.84;;;2.95;100.00
66560;BME280;53413;49.878;8.142;2023-01-28T01:10:10;100806.94;;;2.97;100.00
66560;BME280;53413;49.878;8.142;2023-01-28T01:12:37;100814.75;;;2.99;100.00
66560;BME280;53413;49.878;8.142;2023-01-28T01:15:03;100815.56;;;2.96;100.00
66560;BME280;53413;49.878;8.142;2023-01-28T01:17:33;100818.16;;;2.96;100.00
66560;BME280;53413;49.878;8.142;2023-01-28T01:20:01;100817.31;;;2.96;100.00
66560;BME280;53413;49.878;8.142;2023-01-28T01:22:27;100817.31;;;2.94;100.00
66560;BME280;53413;49.878;8.142;2023-01-28T01:24:52;100818.13;;;2.91;100.00
66560;BME280;53413;49.878;8.142;2023-01-28T01:27:18;100822.47;;;2.91;100.00
66560;BME280;53413;49.878;8.142;2023-01-28T01:29:43;100818.16;;;2.90;100.00
66560;BME280;53413;49.878;8.142;2023-01-28T01:32:08;100823.31;;;2.90;100.00
66560;BME280;53413;49.878;8.142;2023-01-28T01:34:34;100822.44;;;2.88;100.00
66560;BME280;53413;49.878;8.142;2023-01-28T01:36:59;100825.88;;;2.87;100.00
66560;BME280;53413;49.878;8.142;2023-01-28T01:39:24;100822.41;;;2.85;100.00
66560;BME280;53413;49.878;8.142;2023-01-28T01:41:50;100830.19;;;2.85;100.00
66560;BME280;53413;49.878;8.142;2023-01-28T01:47:20;100836.22;;;2.81;100.00
66560;BME280;53413;49.878;8.142;2023-01-28T01:49:48;100837.03;;;2.78;100.00
66560;BME280;53413;49.878;8.142;2023-01-28T01:52:17;100838.78;;;2.76;100.00
66560;BME280;53413;49.878;8.142;2023-01-28T01:54:46;100843.06;;;2.75;100.00
66560;BME280;53413;49.878;8.142;2023-01-28T01:57:15;100843.06;;;2.77;100.00
66560;BME280;53413;49.878;8.142;2023-01-28T01:59:42;100841.31;;;2.74;100.00
66560;BME280;53413;49.878;8.142;2023-01-28T02:02:09;100840.47;;;2.75;100.00
66560;BME280;53413;49.878;8.142;2023-01-28T02:04:40;100843.06;;;2.75;100.00
66560;BME280;53413;49.878;8.142;2023-01-28T02:07:10;100841.31;;;2.73;100.00
66560;BME280;53413;49.878;8.142;2023-01-28T02:09:36;100841.31;;;2.74;100.00
66560;BME280;53413;49.878;8.142;2023-01-28T02:12:12;100836.16;;;2.74;100.00
66560;BME280;53413;49.878;8.142;2023-01-28T02:14:44;100848.22;;;2.75;100.00
66560;BME280;53413;49.878;8.142;2023-01-28T02:17:10;100839.59;;;2.72;100.00
66560;BME280;53413;49.878;8.142;2023-01-28T02:19:39;100840.44;;;2.71;100.00
66560;BME280;53413;49.878;8.142;2023-01-28T02:27:34;100849.03;;;2.65;100.00
66560;BME280;53413;49.878;8.142;2023-01-28T02:30:24;100847.25;;;2.61;100.00
66560;BME280;53413;49.878;8.142;2023-01-28T02:32:59;100850.69;;;2.57;100.00
66560;BME280;53413;49.878;8.142;2023-01-28T02:35:35;100847.19;;;2.53;100.00
66560;BME280;53413;49.878;8.142;2023-01-28T02:40:35;100847.16;;;2.49;100.00
66560;BME280;53413;49.878;8.142;2023-01-28T02:49:08;100843.66;;;2.39;100.00
66560;BME280;53413;49.878;8.142;2023-01-28T02:55:02;100853.88;;;2.29;100.00
66560;BME280;53413;49.878;8.142;2023-01-28T03:03:22;100853.84;;;2.23;100.00
66560;BME280;53413;49.878;8.142;2023-01-28T03:05:54;100857.28;;;2.21;100.00
66560;BME280;53413;49.878;8.142;2023-01-28T03:08:39;100858.06;;;2.15;100.00
66560;BME280;53413;49.878;8.142;2023-01-28T03:11:29;100863.16;;;2.07;100.00
66560;BME280;53413;49.878;8.142;2023-01-28T03:14:15;100863.94;;;2.00;100.00
66560;BME280;53413;49.878;8.142;2023-01-28T03:17:01;100868.16;;;1.92;100.00
66560;BME280;53413;49.878;8.142;2023-01-28T03:19:47;100881.88;;;1.84;100.00
66560;BME280;53413;49.878;8.142;2023-01-28T03:22:33;100870.66;;;1.82;100.00
66560;BME280;53413;49.878;8.142;2023-01-28T03:25:20;100875.81;;;1.84;100.00
66560;BME280;53413;49.878;8.142;2023-01-28T03:28:10;100878.44;;;1.86;100.00
66560;BME280;53413;49.878;8.142;2023-01-28T03:33:49;100874.19;;;1.91;100.00
66560;BME280;53413;49.878;8.142;2023-01-28T03:36:34;100876.81;;;1.94;100.00
66560;BME280;53413;49.878;8.142;2023-01-28T03:39:19;100874.25;;;1.97;100.00
66560;BME280;53413;49.878;8.142;2023-01-28T03:42:04;100878.59;;;1.98;100.00
66560;BME280;53413;49.878;8.142;2023-01-28T03:44:30;100879.47;;;2.02;100.00
66560;BME280;53413;49.878;8.142;2023-01-28T03:47:15;100885.50;;;2.02;100.00
66560;BME280;53413;49.878;8.142;2023-01-28T03:49:41;100883.75;;;2.01;100.00
66560;BME280;53413;49.878;8.142;2023-01-28T03:52:09;100888.94;;;2.01;100.00
66560;BME280;53413;49.878;8.142;2023-01-28T03:54:35;100888.94;;;2.01;100.00
66560;BME280;53413;49.878;8.142;2023-01-28T03:57:00;100891.53;;;2.01;100.00
66560;BME280;53413;49.878;8.142;2023-01-28T03:59:26;100888.09;;;2.02;100.00
66560;BME280;53413;49.878;8.142;2023-01-28T04:01:51;100882.94;;;2.04;100.00
66560;BME280;53413;49.878;8.142;2023-01-28T04:04:16;100892.44;;;2.06;100.00
66560;BME280;53413;49.878;8.142;2023-01-28T04:06:50;100889.88;;;2.08;100.00
66560;BME280;53413;49.878;8.142;2023-01-28T04:09:15;100883.88;;;2.10;100.00
66560;BME280;53413;49.878;8.142;2023-01-28T04:11:41;100890.75;;;2.11;100.00
66560;BME280;53413;49.878;8.142;2023-01-28T04:14:06;100901.09;;;2.08;100.00
66560;BME280;53413;49.878;8.142;2023-01-28T04:16:31;100895.00;;;2.05;100.00
66560;BME280;53413;49.878;8.142;2023-01-28T04:18:57;100901.06;;;2.04;100.00
66560;BME280;53413;49.878;8.142;2023-01-28T04:21:23;100895.84;;;2.00;100.00
66560;BME280;53413;49.878;8.142;2023-01-28T04:23:49;100905.34;;;2.03;100.00
66560;BME280;53413;49.878;8.142;2023-01-28T04:26:14;100902.75;;;2.03;100.00
66560;BME280;53413;49.878;8.142;2023-01-28T04:28:39;100902.75;;;2.05;100.00
66560;BME280;53413;49.878;8.142;2023-01-28T04:31:05;100906.22;;;2.05;100.00
66560;BME280;53413;49.878;8.142;2023-01-28T04:33:30;100901.94;;;2.07;100.00
66560;BME280;53413;49.878;8.142;2023-01-28T04:35:55;100901.94;;;2.07;100.00
66560;BME280;53413;49.878;8.142;2023-01-28T04:38:21;100899.34;;;2.07;100.00
66560;BME280;53413;49.878;8.142;2023-01-28T04:40:50;100901.09;;;2.08;100.00
66560;BME280;53413;49.878;8.142;2023-01-28T04:43:16;100900.22;;;2.08;100.00
66560;BME280;53413;49.878;8.142;2023-01-28T04:45:42;100900.25;;;2.09;100.00
66560;BME280;53413;49.878;8.142;2023-01-28T04:48:07;100895.94;;;2.08;100.00
66560;BME280;53413;49.878;8.142;2023-01-28T04:50:32;100900.25;;;2.09;100.00
66560;BME280;53413;49.878;8.142;2023-01-28T04:52:58;100904.53;;;2.07;100.00
66560;BME280;53413;49.878;8.142;2023-01-28T04:55:23;100905.38;;;2.08;100.00
66560;BME280;53413;49.878;8.142;2023-01-28T04:57:49;100901.94;;;2.09;100.00
66560;BME280;53413;49.878;8.142;2023-01-28T05:00:14;100905.38;;;2.06;100.00
66560;BME280;53413;49.878;8.142;2023-01-28T05:02:40;100909.69;;;2.07;100.00
66560;BME280;53413;49.878;8.142;2023-01-28T05:05:05;100901.09;;;2.08;100.00
66560;BME280;53413;49.878;8.142;2023-01-28T05:07:33;100901.09;;;2.08;100.00
66560;BME280;53413;49.878;8.142;2023-01-28T05:09:58;100901.09;;;2.08;100.00
66560;BME280;53413;49.878;8.142;2023-01-28T05:12:24;100906.28;;;2.08;100.00
66560;BME280;53413;49.878;8.142;2023-01-28T05:14:49;100905.44;;;2.11;100.00
66560;BME280;53413;49.878;8.142;2023-01-28T05:17:14;100907.16;;;2.12;100.00
66560;BME280;53413;49.878;8.142;2023-01-28T05:19:40;100918.41;;;2.14;100.00
66560;BME280;53413;49.878;8.142;2023-01-28T05:22:05;100903.78;;;2.16;100.00
66560;BME280;53413;49.878;8.142;2023-01-28T05:24:30;100912.41;;;2.20;100.00
66560;BME280;53413;49.878;8.142;2023-01-28T05:26:56;100916.75;;;2.21;100.00
66560;BME280;53413;49.878;8.142;2023-01-28T05:29:21;100913.31;;;2.22;100.00
66560;BME280;53413;49.878;8.142;2023-01-28T05:31:47;100922.78;;;2.21;100.00
66560;BME280;53413;49.878;8.142;2023-01-28T05:34:12;100920.19;;;2.20;100.00
66560;BME280;53413;49.878;8.142;2023-01-28T05:36:38;100921.94;;;2.24;100.00
66560;BME280;53413;49.878;8.142;2023-01-28T05:39:05;100923.66;;;2.23;100.00
66560;BME280;53413;49.878;8.142;2023-01-28T05:41:32;100929.69;;;2.24;100.00
66560;BME280;53413;49.878;8.142;2023-01-28T05:43:57;100923.66;;;2.25;100.00
66560;BME280;53413;49.878;8.142;2023-01-28T05:46:22;100928.03;;;2.29;100.00
66560;BME280;53413;49.878;8.142;2023-01-28T05:48:49;100930.66;;;2.32;100.00
66560;BME280;53413;49.878;8.142;2023-01-28T05:51:15;100939.28;;;2.33;100.00
66560;BME280;53413;49.878;8.142;2023-01-28T05:53:40;100938.41;;;2.34;100.00
66560;BME280;53413;49.878;8.142;2023-01-28T05:56:06;100944.44;;;2.33;100.00
66560;BME280;53413;49.878;8.142;2023-01-28T05:58:31;100950.50;;;2.33;100.00
66560;BME280;53413;49.878;8.142;2023-01-28T06:00:57;100942.75;;;2.33;100.00
66560;BME280;53413;49.878;8.142;2023-01-28T06:03:22;100954.78;;;2.31;100.00
66560;BME280;53413;49.878;8.142;2023-01-28T06:05:48;100959.06;;;2.29;100.00
66560;BME280;53413;49.878;8.142;2023-01-28T06:08:13;100965.09;;;2.28;100.00
66560;BME280;53413;49.878;8.142;2023-01-28T06:10:38;100964.25;;;2.29;100.00
66560;BME280;53413;49.878;8.142;2023-01-28T06:13:04;100965.09;;;2.28;100.00
66560;BME280;53413;49.878;8.142;2023-01-28T06:15:29;100961.66;;;2.27;100.00
66560;BME280;53413;49.878;8.142;2023-01-28T06:17:55;100965.94;;;2.27;100.00
66560;BME280;53413;49.878;8.142;2023-01-28T06:20:20;100973.66;;;2.24;100.00
66560;BME280;53413;49.878;8.142;2023-01-28T06:22:45;100972.78;;;2.23;100.00
66560;BME280;53413;49.878;8.142;2023-01-28T06:25:11;100977.97;;;2.23;100.00
66560;BME280;53413;49.878;8.142;2023-01-28T06:27:36;100985.72;;;2.25;100.00
66560;BME280;53413;49.878;8.142;2023-01-28T06:30:02;100976.28;;;2.25;100.00
66560;BME280;53413;49.878;8.142;2023-01-28T06:32:27;100981.50;;;2.30;100.00
66560;BME280;53413;49.878;8.142;2023-01-28T06:34:53;100990.16;;;2.32;100.00
66560;BME280;53413;49.878;8.142;2023-01-28T06:37:18;100985.88;;;2.34;100.00
66560;BME280;53413;49.878;8.142;2023-01-28T06:39:44;100985.81;;;2.31;100.00
66560;BME280;53413;49.878;8.142;2023-01-28T06:42:10;100998.81;;;2.36;100.00
66560;BME280;53413;49.878;8.142;2023-01-28T06:44:35;100998.78;;;2.34;100.00
66560;BME280;53413;49.878;8.142;2023-01-28T06:47:01;100989.31;;;2.35;100.00
66560;BME280;53413;49.878;8.142;2023-01-28T06:49:26;100997.09;;;2.38;100.00
66560;BME280;53413;49.878;8.142;2023-01-28T06:51:52;101000.59;;;2.40;100.00
66560;BME280;53413;49.878;8.142;2023-01-28T06:54:17;100998.81;;;2.37;100.00
66560;BME280;53413;49.878;8.142;2023-01-28T06:56:42;101002.28;;;2.38;100.00
66560;BME280;53413;49.878;8.142;2023-01-28T06:59:08;100999.69;;;2.41;100.00
66560;BME280;53413;49.878;8.142;2023-01-28T07:01:33;100999.69;;;2.41;100.00
66560;BME280;53413;49.878;8.142;2023-01-28T07:03:59;101001.44;;;2.40;100.00
66560;BME280;53413;49.878;8.142;2023-01-28T07:06:24;101004.06;;;2.45;100.00
66560;BME280;53413;49.878;8.142;2023-01-28T07:08:49;101007.56;;;2.47;100.00
66560;BME280;53413;49.878;8.142;2023-01-28T07:11:15;101002.38;;;2.49;100.00
66560;BME280;53413;49.878;8.142;2023-01-28T07:13:41;101008.50;;;2.54;100.00
66560;BME280;53413;49.878;8.142;2023-01-28T07:16:07;101013.72;;;2.57;100.00
66560;BME280;53413;49.878;8.142;2023-01-28T07:18:33;101014.56;;;2.59;100.00
66560;BME280;53413;49.878;8.142;2023-01-28T07:20:58;101015.50;;;2.63;100.00
66560;BME280;53413;49.878;8.142;2023-01-28T07:23:23;101006.00;;;2.63;100.00
66560;BME280;53413;49.878;8.142;2023-01-28T07:25:49;101016.34;;;2.61;100.00
66560;BME280;53413;49.878;8.142;2023-01-28T07:28:14;101023.22;;;2.61;100.00
66560;BME280;53413;49.878;8.142;2023-01-28T07:30:49;101025.84;;;2.64;100.00
66560;BME280;53413;49.878;8.142;2023-01-28T07:33:15;101022.41;;;2.67;100.00
66560;BME280;53413;49.878;8.142;2023-01-28T07:35:41;101020.72;;;2.69;100.00
66560;BME280;53413;49.878;8.142;2023-01-28T07:38:06;101022.44;;;2.68;100.00
66560;BME280;53413;49.878;8.142;2023-01-28T07:40:31;101023.31;;;2.67;100.00
66560;BME280;53413;49.878;8.142;2023-01-28T07:42:57;101025.00;;;2.65;100.00
66560;BME280;53413;49.878;8.142;2023-01-28T07:45:23;101017.19;;;2.62;100.00
66560;BME280;53413;49.878;8.142;2023-01-28T07:47:56;101024.06;;;2.60;100.00
66560;BME280;53413;49.878;8.142;2023-01-28T07:50:22;101026.69;;;2.63;100.00
66560;BME280;53413;49.878;8.142;2023-01-28T07:52:48;101028.47;;;2.67;100.00
66560;BME280;53413;49.878;8.142;2023-01-28T07:55:13;101034.50;;;2.66;100.00
66560;BME280;53413;49.878;8.142;2023-01-28T07:57:50;101037.13;;;2.69;100.00
66560;BME280;53413;49.878;8.142;2023-01-28T08:00:16;101043.16;;;2.71;100.00
66560;BME280;53413;49.878;8.142;2023-01-28T08:02:42;101044.06;;;2.72;100.00
66560;BME280;53413;49.878;8.142;2023-01-28T08:05:09;101046.66;;;2.73;100.00
66560;BME280;53413;49.878;8.142;2023-01-28T08:07:34;101044.09;;;2.75;100.00
66560;BME280;53413;49.878;8.142;2023-01-28T08:09:59;101041.53;;;2.80;100.00
66560;BME280;53413;49.878;8.142;2023-01-28T08:12:25;101032.09;;;2.83;100.00
66560;BME280;53413;49.878;8.142;2023-01-28T08:14:50;101039.84;;;2.83;100.00
66560;BME280;53413;49.878;8.142;2023-01-28T08:17:15;101032.97;;;2.87;100.00
66560;BME280;53413;49.878;8.142;2023-01-28T08:19:41;101040.69;;;2.84;100.00
66560;BME280;53413;49.878;8.142;2023-01-28T08:22:06;101044.97;;;2.79;100.00
66560;BME280;53413;49.878;8.142;2023-01-28T08:24:31;101044.09;;;2.78;100.00
66560;BME280;53413;49.878;8.142;2023-01-28T08:26:56;101038.97;;;2.81;100.00
66560;BME280;53413;49.878;8.142;2023-01-28T08:29:22;101035.53;;;2.81;100.00
66560;BME280;53413;49.878;8.142;2023-01-28T08:31:47;101044.13;;;2.81;100.00
66560;BME280;53413;49.878;8.142;2023-01-28T08:34:12;101046.72;;;2.80;100.00
66560;BME280;53413;49.878;8.142;2023-01-28T08:36:38;101045.03;;;2.83;100.00
66560;BME280;53413;49.878;8.142;2023-01-28T08:39:03;101040.78;;;2.88;100.00
66560;BME280;53413;49.878;8.142;2023-01-28T08:41:30;101038.22;;;2.93;100.00
66560;BME280;53413;49.878;8.142;2023-01-28T08:43:55;101039.16;;;3.00;100.00
66560;BME280;53413;49.878;8.142;2023-01-28T08:46:20;101046.94;;;3.03;100.00
66560;BME280;53413;49.878;8.142;2023-01-28T08:48:48;101041.75;;;3.01;100.00
66560;BME280;53413;49.878;8.142;2023-01-28T08:51:14;101042.66;;;3.03;100.00
66560;BME280;53413;49.878;8.142;2023-01-28T08:53:39;101047.13;;;3.21;100.00
66560;BME280;53413;49.878;8.142;2023-01-28T08:56:05;101045.50;;;3.34;100.00
66560;BME280;53413;49.878;8.142;2023-01-28T08:58:30;101044.69;;;3.43;100.00
66560;BME280;53413;49.878;8.142;2023-01-28T09:00:56;101051.66;;;3.47;100.00
66560;BME280;53413;49.878;8.142;2023-01-28T09:03:21;101053.38;;;3.47;100.00
66560;BME280;53413;49.878;8.142;2023-01-28T09:05:47;101058.53;;;3.45;100.00
66560;BME280;53413;49.878;8.142;2023-01-28T09:08:14;101064.63;;;3.47;100.00
66560;BME280;53413;49.878;8.142;2023-01-28T09:10:40;101055.13;;;3.52;100.00
66560;BME280;53413;49.878;8.142;2023-01-28T09:13:12;101059.53;;;3.60;100.00
66560;BME280;53413;49.878;8.142;2023-01-28T09:15:38;101070.81;;;3.68;100.00
66560;BME280;53413;49.878;8.142;2023-01-28T09:18:04;101071.69;;;3.72;100.00
66560;BME280;53413;49.878;8.142;2023-01-28T09:20:29;101079.53;;;3.78;100.00
66560;BME280;53413;49.878;8.142;2023-01-28T09:22:57;101078.72;;;3.83;100.00
66560;BME280;53413;49.878;8.142;2023-01-28T09:25:22;101073.50;;;3.87;100.00
66560;BME280;53413;49.878;8.142;2023-01-28T09:27:48;101073.50;;;3.87;100.00
66560;BME280;53413;49.878;8.142;2023-01-28T09:30:13;101073.53;;;3.88;100.00
66560;BME280;53413;49.878;8.142;2023-01-28T09:32:39;101072.69;;;3.92;100.00
66560;BME280;53413;49.878;8.142;2023-01-28T09:35:04;101077.88;;;3.92;100.00
66560;BME280;53413;49.878;8.142;2023-01-28T09:37:30;101077.06;;;3.99;100.00
66560;BME280;53413;49.878;8.142;2023-01-28T09:39:55;101079.66;;;3.99;100.00
66560;BME280;53413;49.878;8.142;2023-01-28T09:47:46;101076.41;;;4.39;100.00
66560;BME280;53413;49.878;8.142;2023-01-28T09:50:29;101082.53;;;4.55;100.00
66560;BME280;53413;49.878;8.142;2023-01-28T09:53:05;101080.88;;;4.73;100.00
66560;BME280;53413;49.878;8.142;2023-01-28T09:55:38;101086.97;;;4.84;100.00
66560;BME280;53413;49.878;8.142;2023-01-28T09:58:06;101100.81;;;4.86;100.00
66560;BME280;53413;49.878;8.142;2023-01-28T10:09:03;101099.97;;;4.92;100.00
66560;BME280;53413;49.878;8.142;2023-01-28T10:17:15;101093.91;;;5.01;100.00
66560;BME280;53413;49.878;8.142;2023-01-28T10:20:13;101096.53;;;5.04;100.00
66560;BME280;53413;49.878;8.142;2023-01-28T10:22:54;101100.88;;;5.11;100.00
66560;BME280;53413;49.878;8.142;2023-01-28T10:25:23;101099.97;;;5.03;100.00
66560;BME280;53413;49.878;8.142;2023-01-28T10:27:50;101108.59;;;4.89;100.00
66560;BME280;53413;49.878;8.142;2023-01-28T10:30:19;101102.47;;;4.69;100.00
66560;BME280;53413;49.878;8.142;2023-01-28T10:33:08;101106.78;;;4.60;100.00
66560;BME280;53413;49.878;8.142;2023-01-28T10:35:39;101109.31;;;4.51;100.00
66560;BME280;53413;49.878;8.142;2023-01-28T10:38:07;101118.84;;;4.49;100.00
66560;BME280;53413;49.878;8.142;2023-01-28T10:40:34;101116.19;;;4.40;100.00
66560;BME280;53413;49.878;8.142;2023-01-28T10:43:00;101122.22;;;4.31;100.00
66560;BME280;53413;49.878;8.142;2023-01-28T10:45:29;101114.44;;;4.32;100.00
66560;BME280;53413;49.878;8.142;2023-01-28T10:48:20;101107.56;;;4.42;100.00
66560;BME280;53413;49.878;8.142;2023-01-28T10:50:55;101111.09;;;4.57;100.00
66560;BME280;53413;49.878;8.142;2023-01-28T10:53:42;101110.28;;;4.69;100.00
66560;BME280;53413;49.878;8.142;2023-01-28T10:56:09;101115.47;;;4.73;100.00
66560;BME280;53413;49.878;8.142;2023-01-28T10:58:46;101112.06;;;4.82;100.00
66560;BME280;53413;49.878;8.142;2023-01-28T11:01:12;101112.94;;;4.86;100.00
66560;BME280;53413;49.878;8.142;2023-01-28T11:03:39;101114.66;;;4.91;100.00
66560;BME280;53413;49.878;8.142;2023-01-28T11:06:05;101118.13;;;4.95;100.00
66560;BME280;53413;49.878;8.142;2023-01-28T11:08:42;101112.97;;;5.03;100.00
66560;BME280;53413;49.878;8.142;2023-01-28T11:11:13;101106.91;;;4.98;100.00
66560;BME280;53413;49.878;8.142;2023-01-28T11:13:49;101112.97;;;5.06;100.00
66560;BME280;53413;49.878;8.142;2023-01-28T11:16:17;101106.06;;;5.09;99.86
66560;BME280;53413;49.878;8.142;2023-01-28T11:18:53;101106.06;;;5.14;99.42
66560;BME280;53413;49.878;8.142;2023-01-28T11:21:24;101107.81;;;5.15;99.02
66560;BME280;53413;49.878;8.142;2023-01-28T11:24:01;101097.41;;;5.20;97.82
66560;BME280;53413;49.878;8.142;2023-01-28T11:26:31;101103.47;;;5.23;97.35
66560;BME280;53413;49.878;8.142;2023-01-28T11:28:58;101106.09;;;5.28;97.01
66560;BME280;53413;49.878;8.142;2023-01-28T11:31:24;101112.16;;;5.36;97.44
66560;BME280;53413;49.878;8.142;2023-01-28T11:33:57;101113.88;;;5.31;97.25
66560;BME280;53413;49.878;8.142;2023-01-28T11:36:25;101111.28;;;5.22;97.02
66560;BME280;53413;49.878;8.142;2023-01-28T11:38:58;101119.03;;;5.05;97.08
66560;BME280;53413;49.878;8.142;2023-01-28T11:41:32;101108.63;;;4.92;97.61
66560;BME280;53413;49.878;8.142;2023-01-28T11:44:00;101121.59;;;4.83;98.40
66560;BME280;53413;49.878;8.142;2023-01-28T11:49:31;101106.84;;;4.73;97.83
66560;BME280;53413;49.878;8.142;2023-01-28T12:05:50;101095.53;;;4.58;99.76
66560;BME280;53413;49.878;8.142;2023-01-28T12:08:20;101094.66;;;4.59;99.14
66560;BME280;53413;49.878;8.142;2023-01-28T12:17:01;101086.88;;;4.61;96.91
66560;BME280;53413;49.878;8.142;2023-01-28T12:19:48;101091.22;;;4.67;96.91
66560;BME280;53413;49.878;8.142;2023-01-28T12:28:02;101090.34;;;4.69;95.47
66560;BME280;53413;49.878;8.142;2023-01-28T12:30:41;101091.22;;;4.67;94.76
66560;BME280;53413;49.878;8.142;2023-01-28T12:41:14;101098.00;;;4.34;95.69
66560;BME280;53413;49.878;8.142;2023-01-28T12:44:00;101084.09;;;4.18;96.08
66560;BME280;53413;49.878;8.142;2023-01-28T12:46:48;101080.53;;;4.05;96.69
66560;BME280;53413;49.878;8.142;2023-01-28T12:52:00;101084.81;;;3.95;96.63
66560;BME280;53413;49.878;8.142;2023-01-28T12:57:01;101085.66;;;3.89;98.27
66560;BME280;53413;49.878;8.142;2023-01-28T12:59:41;101086.44;;;3.80;97.66
66560;BME280;53413;49.878;8.142;2023-01-28T13:07:19;101087.22;;;3.68;96.92
66560;BME280;53413;49.878;8.142;2023-01-28T13:09:51;101088.00;;;3.57;98.08
66560;BME280;53413;49.878;8.142;2023-01-28T13:12:19;101085.38;;;3.52;98.55
66560;BME280;53413;49.878;8.142;2023-01-28T13:14:46;101088.81;;;3.51;99.94
66560;BME280;53413;49.878;8.142;2023-01-28T13:17:27;101093.16;;;3.52;100.00
66560;BME280;53413;49.878;8.142;2023-01-28T13:19:53;101092.19;;;3.44;100.00
66560;BME280;53413;49.878;8.142;2023-01-28T13:22:26;101103.47;;;3.47;100.00
66560;BME280;53413;49.878;8.142;2023-01-28T13:24:52;101099.19;;;3.51;100.00
66560;BME280;53413;49.878;8.142;2023-01-28T13:27:24;101106.06;;;3.49;100.00
66560;BME280;53413;49.878;8.142;2023-01-28T13:30:18;101113.00;;;3.48;99.59
66560;BME280;53413;49.878;8.142;2023-01-28T13:32:56;101111.25;;;3.49;99.90
66560;BME280;53413;49.878;8.142;2023-01-28T13:38:09;101118.25;;;3.59;100.00
66560;BME280;53413;49.878;8.142;2023-01-28T13:40:35;101123.47;;;3.62;99.13
66560;BME280;53413;49.878;8.142;2023-01-28T13:43:05;101117.38;;;3.57;98.08
66560;BME280;53413;49.878;8.142;2023-01-28T13:45:31;101133.81;;;3.59;98.34
66560;BME280;53413;49.878;8.142;2023-01-28T13:48:29;101138.13;;;3.60;98.85
66560;BME280;53413;49.878;8.142;2023-01-28T13:50:56;101128.59;;;3.54;97.60
66560;BME280;53413;49.878;8.142;2023-01-28T13:56:41;101131.13;;;3.48;96.81
66560;BME280;53413;49.878;8.142;2023-01-28T13:59:28;101143.84;;;3.25;96.41
66560;BME280;53413;49.878;8.142;2023-01-28T14:15:54;101146.84;;;2.84;98.22
66560;BME280;53413;49.878;8.142;2023-01-28T14:18:29;101149.53;;;2.91;99.08
66560;BME280;53413;49.878;8.142;2023-01-28T14:21:01;101145.19;;;2.87;96.65
66560;BME280;53413;49.878;8.142;2023-01-28T14:23:28;101148.63;;;2.88;97.42
66560;BME280;53413;49.878;8.142;2023-01-28T14:31:35;101152.97;;;2.89;95.87
66560;BME280;53413;49.878;8.142;2023-01-28T14:34:30;101150.41;;;2.92;95.46
66560;BME280;53413;49.878;8.142;2023-01-28T14:37:00;101156.47;;;2.94;94.46
66560;BME280;53413;49.878;8.142;2023-01-28T14:39:29;101155.59;;;2.92;94.37
66560;BME280;53413;49.878;8.142;2023-01-28T14:41:58;101165.97;;;2.95;95.10
66560;BME280;53413;49.878;8.142;2023-01-28T14:44:37;101158.19;;;2.93;95.57
66560;BME280;53413;49.878;8.142;2023-01-28T14:49:54;101168.47;;;2.87;94.81
66560;BME280;53413;49.878;8.142;2023-01-28T14:53:08;101165.00;;;2.85;95.53
66560;BME280;53413;49.878;8.142;2023-01-28T14:55:50;101151.16;;;2.83;96.12
66560;BME280;53413;49.878;8.142;2023-01-28T14:58:28;101150.28;;;2.83;95.59
66560;BME280;53413;49.878;8.142;2023-01-28T15:00:59;101147.56;;;2.70;95.54
66560;BME280;53413;49.878;8.142;2023-01-28T15:03:28;101148.41;;;2.69;97.79
66560;BME280;53413;49.878;8.142;2023-01-28T15:06:21;101145.69;;;2.60;95.39
66560;BME280;53413;49.878;8.142;2023-01-28T15:08:52;101142.94;;;2.47;94.87